Stelle, Illinois
Current Conditions -  °F | °C
As of 9:55 AM on Thursday 27 Nov 2014 (Local Time) from KPNT Reporting Station
Overcast Overcast  
Wind Chill: 17°   Ceiling: 1500
Heat Index: 28°   Visibility: 10mi
Dew Point: 23°   Wind: 14mph
Humidity: 83%   Direction: 300°WNW
Pressure: 30.39"   Gusts: 17mph
Location:  40.9777°N, 88.1923°W
Report Text: KPNT 271555Z AUTO 30012G15KT 10SM BKN015 OVC029 M02/M05 A3039 RMK AO2 T10221048
Loading
Personal Weather Stations






























Interactive Weather Map New forecast layout! Learn more

10-Day Weather Forecast

Advertisements
Track Severe Weather on mobile